createdAt,value
2023-05-08T00:00:55.822Z,72.09
2023-05-08T00:01:55.844Z,71.83
2023-05-08T00:02:55.908Z,71.71
2023-05-08T00:03:56.084Z,71.73
2023-05-08T00:04:56.015Z,71.76
2023-05-08T00:05:55.980Z,71.39
2023-05-08T00:06:55.917Z,71.26
2023-05-08T00:07:55.950Z,71.48
2023-05-08T00:08:56.045Z,71.53
2023-05-08T00:09:56.046Z,71.74
2023-05-08T00:10:56.154Z,71.72
2023-05-08T00:11:56.245Z,71.87
2023-05-08T00:12:56.224Z,71.90
2023-05-08T00:13:56.263Z,71.93
2023-05-08T00:14:56.343Z,72.12
2023-05-08T00:15:56.405Z,72.28
2023-05-08T00:16:56.447Z,72.25
2023-05-08T00:17:56.512Z,72.16
2023-05-08T00:18:56.514Z,72.38
2023-05-08T00:19:56.527Z,72.57
2023-05-08T00:20:57.150Z,72.67
2023-05-08T00:21:56.661Z,72.58
2023-05-08T00:22:56.642Z,72.36
2023-05-08T00:23:56.706Z,72.28
2023-05-08T00:24:56.716Z,71.88
2023-05-08T00:25:56.829Z,72.15
2023-05-08T00:26:56.847Z,72.08
2023-05-08T00:27:56.884Z,72.16
2023-05-08T00:28:56.995Z,72.24
2023-05-08T00:29:57.123Z,72.26
2023-05-08T00:30:57.050Z,72.71
2023-05-08T00:31:57.134Z,72.85
2023-05-08T00:32:57.223Z,73.09
2023-05-08T00:33:57.134Z,72.99
2023-05-08T00:34:57.249Z,72.76
2023-05-08T00:35:57.294Z,72.56
2023-05-08T00:36:57.294Z,72.39
2023-05-08T00:37:57.362Z,72.33
2023-05-08T00:38:57.341Z,72.07
2023-05-08T00:39:57.433Z,71.69
2023-05-08T00:40:57.434Z,71.57
2023-05-08T00:41:57.478Z,71.73
2023-05-08T00:42:57.518Z,71.80
2023-05-08T00:43:57.540Z,71.88
2023-05-08T00:44:57.596Z,71.50
2023-05-08T00:45:57.626Z,71.44
2023-05-08T00:46:57.636Z,71.17
2023-05-08T00:47:57.685Z,70.92
2023-05-08T00:48:57.689Z,71.55
2023-05-08T00:49:57.709Z,71.66
2023-05-08T00:50:57.683Z,71.50
2023-05-08T00:51:57.720Z,71.33
2023-05-08T00:52:57.710Z,71.55
2023-05-08T00:53:57.795Z,71.45
2023-05-08T00:54:57.936Z,71.32
2023-05-08T00:55:57.879Z,71.54
2023-05-08T00:56:57.996Z,71.51
2023-05-08T00:57:57.957Z,71.50
2023-05-08T00:58:58.025Z,71.70
2023-05-08T00:59:58.063Z,72.01
2023-05-08T01:00:58.064Z,71.79
2023-05-08T01:01:58.141Z,71.42
2023-05-08T01:02:58.157Z,71.27
2023-05-08T01:03:58.181Z,71.00
2023-05-08T01:04:58.287Z,70.91
2023-05-08T01:06:00.225Z,71.08
2023-05-08T01:06:58.275Z,70.58
2023-05-08T01:07:58.304Z,70.48
2023-05-08T01:08:58.317Z,70.33
2023-05-08T01:09:58.320Z,70.26
2023-05-08T01:10:58.392Z,70.06
2023-05-08T01:11:58.436Z,69.85
2023-05-08T01:12:58.488Z,70.07
2023-05-08T01:13:58.558Z,69.99
2023-05-08T01:14:58.527Z,70.14
2023-05-08T01:15:59.172Z,70.01
2023-05-08T01:16:58.617Z,70.30
2023-05-08T01:17:58.636Z,70.28
2023-05-08T01:18:58.598Z,70.65
2023-05-08T01:19:58.664Z,70.32
2023-05-08T01:20:58.674Z,70.24
2023-05-08T01:21:58.712Z,70.00
2023-05-08T01:22:58.736Z,69.83
2023-05-08T01:23:58.775Z,69.53
2023-05-08T01:24:58.809Z,70.08
2023-05-08T01:25:58.897Z,69.91
2023-05-08T01:26:58.914Z,70.17
2023-05-08T01:27:58.847Z,70.58
2023-05-08T01:28:58.918Z,70.06
2023-05-08T01:29:58.922Z,69.80
2023-05-08T01:30:58.944Z,70.00
2023-05-08T01:31:58.988Z,70.09
2023-05-08T01:32:59.083Z,69.58
2023-05-08T01:33:59.128Z,70.24
2023-05-08T01:34:59.120Z,70.12
2023-05-08T01:35:59.138Z,70.22
2023-05-08T01:36:59.668Z,70.32
2023-05-08T01:37:59.246Z,70.27
2023-05-08T01:38:59.259Z,70.25
2023-05-08T01:39:59.331Z,69.88
2023-05-08T01:40:59.283Z,70.25
2023-05-08T01:41:59.310Z,70.32
2023-05-08T01:42:59.373Z,70.25
2023-05-08T01:43:59.412Z,70.36
2023-05-08T01:44:59.416Z,70.19
2023-05-08T01:45:59.540Z,69.77
2023-05-08T01:46:59.534Z,70.01
2023-05-08T01:47:59.629Z,69.68
2023-05-08T01:49:00.178Z,69.49
2023-05-08T01:49:59.580Z,69.51
2023-05-08T01:50:59.570Z,69.41
2023-05-08T01:51:59.589Z,69.00
2023-05-08T01:52:59.621Z,68.97
2023-05-08T01:53:59.674Z,68.81
2023-05-08T01:54:59.707Z,68.54
2023-05-08T01:55:59.716Z,68.67
2023-05-08T01:56:59.752Z,68.66
2023-05-08T01:57:59.775Z,68.72
2023-05-08T01:58:59.782Z,68.94
2023-05-08T01:59:59.826Z,68.92
2023-05-08T02:00:59.929Z,68.70
2023-05-08T02:02:00.242Z,68.66
2023-05-08T02:02:59.916Z,68.75
2023-05-08T02:03:59.922Z,68.91
2023-05-08T02:04:59.970Z,68.67
2023-05-08T02:05:59.938Z,69.04
2023-05-08T02:07:00.011Z,69.08
2023-05-08T02:07:59.993Z,68.96
2023-05-08T02:09:00.011Z,69.15
2023-05-08T02:10:00.089Z,69.53
2023-05-08T02:11:00.064Z,69.56
2023-05-08T02:12:00.121Z,69.39
2023-05-08T02:13:00.176Z,69.23
2023-05-08T02:14:00.148Z,69.40
2023-05-08T02:15:00.145Z,69.73
2023-05-08T02:16:00.196Z,70.33
2023-05-08T02:17:01.194Z,70.75
2023-05-08T02:18:00.306Z,71.41
2023-05-08T02:19:00.267Z,71.24
2023-05-08T02:20:00.297Z,71.10
2023-05-08T02:21:00.292Z,70.92
2023-05-08T02:22:00.409Z,70.96
2023-05-08T02:23:00.332Z,70.65
2023-05-08T02:24:00.354Z,70.64
2023-05-08T02:25:00.376Z,70.66
2023-05-08T02:26:00.424Z,70.28
2023-05-08T02:27:00.473Z,69.91
2023-05-08T02:28:00.488Z,69.78
2023-05-08T02:29:00.522Z,69.70
2023-05-08T02:30:00.599Z,69.60
2023-05-08T02:31:00.575Z,69.53
2023-05-08T02:32:00.627Z,69.83
2023-05-08T02:33:01.011Z,70.12
2023-05-08T02:34:00.677Z,70.25
2023-05-08T02:35:03.500Z,70.53
2023-05-08T02:36:00.701Z,70.27
2023-05-08T02:37:00.707Z,70.41
2023-05-08T02:38:00.709Z,70.64
2023-05-08T02:39:00.698Z,70.74
2023-05-08T02:40:00.713Z,70.72
2023-05-08T02:41:00.716Z,70.71
2023-05-08T02:42:00.707Z,70.53
2023-05-08T02:43:00.681Z,70.60
2023-05-08T02:44:00.632Z,70.36
2023-05-08T02:45:00.652Z,70.21
2023-05-08T02:46:00.737Z,70.11
2023-05-08T02:47:00.655Z,70.46
2023-05-08T02:48:00.687Z,70.39
2023-05-08T02:49:00.614Z,70.44
2023-05-08T02:50:00.680Z,70.39
2023-05-08T02:51:00.620Z,70.25
2023-05-08T02:52:00.614Z,70.18
2023-05-08T02:53:00.604Z,70.04
2023-05-08T02:54:00.555Z,70.11
2023-05-08T02:55:00.723Z,70.04
2023-05-08T02:56:00.582Z,70.00
2023-05-08T02:57:00.565Z,70.43
2023-05-08T02:58:00.591Z,70.73
2023-05-08T02:59:00.660Z,70.98
2023-05-08T03:00:00.611Z,71.50
2023-05-08T03:01:00.651Z,71.32
2023-05-08T03:02:00.557Z,71.35
2023-05-08T03:03:00.595Z,71.50
2023-05-08T03:04:00.596Z,71.32
2023-05-08T03:05:00.501Z,71.36
2023-05-08T03:06:00.581Z,71.45
2023-05-08T03:07:00.530Z,71.51
2023-05-08T03:08:00.496Z,71.52
2023-05-08T03:09:00.476Z,71.64
2023-05-08T03:10:00.504Z,71.80
2023-05-08T03:11:00.467Z,71.49
2023-05-08T03:12:00.693Z,71.63
2023-05-08T03:13:00.535Z,72.14
2023-05-08T03:14:00.524Z,72.32
2023-05-08T03:15:00.559Z,72.57
2023-05-08T03:16:00.486Z,72.36
2023-05-08T03:17:00.422Z,72.46
2023-05-08T03:18:00.482Z,72.31
2023-05-08T03:19:00.408Z,72.37
2023-05-08T03:20:00.427Z,72.25
2023-05-08T03:21:00.418Z,72.50
2023-05-08T03:22:00.409Z,72.65
2023-05-08T03:23:00.376Z,73.13
2023-05-08T03:24:00.361Z,73.05
2023-05-08T03:25:00.392Z,73.20
2023-05-08T03:26:00.354Z,73.18
2023-05-08T03:27:00.350Z,73.00
2023-05-08T03:28:00.379Z,72.96
2023-05-08T03:29:00.344Z,73.15
2023-05-08T03:30:00.362Z,72.97
2023-05-08T03:31:00.356Z,72.77
2023-05-08T03:32:00.396Z,72.64
2023-05-08T03:33:00.459Z,72.51
2023-05-08T03:34:00.446Z,72.42
2023-05-08T03:35:00.435Z,72.52
2023-05-08T03:36:01.228Z,73.13
2023-05-08T03:37:00.504Z,73.51
2023-05-08T03:38:00.525Z,73.21
2023-05-08T03:39:00.483Z,73.42
2023-05-08T03:40:00.491Z,73.37
2023-05-08T03:41:00.558Z,73.27
2023-05-08T03:42:00.579Z,73.26
2023-05-08T03:43:00.559Z,72.94
2023-05-08T03:44:00.606Z,72.82
2023-05-08T03:45:00.580Z,73.00
2023-05-08T03:46:00.606Z,73.06
2023-05-08T03:47:00.705Z,73.06
2023-05-08T03:48:00.719Z,72.73
2023-05-08T03:49:00.672Z,72.74
2023-05-08T03:50:00.718Z,72.77
2023-05-08T03:51:00.744Z,72.81
2023-05-08T03:52:00.764Z,72.66
2023-05-08T03:53:00.783Z,72.84
2023-05-08T03:54:00.854Z,72.93
2023-05-08T03:55:00.875Z,72.57
2023-05-08T03:56:00.960Z,72.39
2023-05-08T03:57:00.956Z,71.96
2023-05-08T03:58:01.008Z,71.75
2023-05-08T03:59:01.075Z,71.46
2023-05-08T04:00:01.186Z,71.22
2023-05-08T04:01:01.142Z,70.93
2023-05-08T04:02:01.266Z,70.96
2023-05-08T04:03:01.262Z,70.86
2023-05-08T04:04:01.194Z,71.01
2023-05-08T04:05:01.137Z,70.51
2023-05-08T04:06:01.245Z,70.71
2023-05-08T04:07:01.215Z,70.92
2023-05-08T04:08:01.267Z,70.88
2023-05-08T04:09:01.360Z,70.74
2023-05-08T04:10:01.377Z,70.69
2023-05-08T04:11:01.436Z,70.23
2023-05-08T04:12:01.483Z,70.65
2023-05-08T04:13:01.612Z,70.25
2023-05-08T04:14:01.540Z,70.79
2023-05-08T04:15:01.642Z,70.54
2023-05-08T04:16:01.678Z,70.38
2023-05-08T04:17:01.785Z,70.26
2023-05-08T04:18:01.805Z,70.21
2023-05-08T04:19:01.785Z,70.17
2023-05-08T04:20:01.894Z,70.04
2023-05-08T04:21:01.884Z,69.81
2023-05-08T04:22:01.961Z,69.78
2023-05-08T04:23:01.966Z,69.87
2023-05-08T04:24:02.039Z,70.09
2023-05-08T04:25:02.060Z,70.15
2023-05-08T04:26:03.657Z,69.92
2023-05-08T04:27:02.042Z,69.90
2023-05-08T04:28:02.009Z,70.08
2023-05-08T04:29:02.037Z,70.15
2023-05-08T04:30:02.010Z,70.02
2023-05-08T04:31:02.005Z,69.60
2023-05-08T04:32:02.113Z,69.51
2023-05-08T04:33:02.069Z,69.18
2023-05-08T04:34:01.976Z,69.62
2023-05-08T04:35:02.249Z,69.78
2023-05-08T04:36:01.987Z,69.75
2023-05-08T04:37:02.024Z,69.88
2023-05-08T04:38:01.954Z,70.02
2023-05-08T04:39:01.958Z,69.59
2023-05-08T04:40:01.972Z,69.21
2023-05-08T04:41:01.980Z,69.20
2023-05-08T04:42:01.961Z,69.37
2023-05-08T04:43:01.933Z,69.49
2023-05-08T04:44:01.909Z,69.45
2023-05-08T04:45:01.925Z,69.42
2023-05-08T04:46:01.943Z,69.31
2023-05-08T04:47:01.973Z,69.41
2023-05-08T04:48:01.889Z,69.31
2023-05-08T04:49:01.902Z,69.24
2023-05-08T04:50:03.048Z,69.02
2023-05-08T04:51:01.871Z,68.85
2023-05-08T04:52:01.850Z,68.75
2023-05-08T04:53:01.883Z,68.39
2023-05-08T04:54:01.837Z,68.41
2023-05-08T04:55:01.843Z,68.52
2023-05-08T04:56:01.885Z,68.55
2023-05-08T04:57:01.895Z,68.68
2023-05-08T04:58:01.839Z,68.85
2023-05-08T04:59:01.823Z,68.85
2023-05-08T05:00:02.707Z,68.68
2023-05-08T05:01:01.892Z,68.54
2023-05-08T05:02:01.933Z,68.68
2023-05-08T05:03:01.860Z,68.43
2023-05-08T05:04:01.840Z,68.42
2023-05-08T05:05:01.833Z,68.64
2023-05-08T05:06:01.754Z,68.64
2023-05-08T05:07:01.762Z,68.49
2023-05-08T05:08:01.830Z,68.12
2023-05-08T05:09:01.765Z,67.89
2023-05-08T05:10:01.740Z,68.19
2023-05-08T05:11:01.740Z,68.77
2023-05-08T05:12:01.751Z,69.15
2023-05-08T05:13:01.765Z,68.55
2023-05-08T05:14:01.799Z,68.41
2023-05-08T05:15:01.769Z,68.35
2023-05-08T05:16:02.314Z,68.12
2023-05-08T05:17:01.702Z,67.78
2023-05-08T05:18:01.750Z,67.95
2023-05-08T05:19:01.743Z,67.80
2023-05-08T05:20:01.687Z,67.57
2023-05-08T05:21:01.764Z,68.18
2023-05-08T05:22:01.775Z,68.16
2023-05-08T05:23:01.806Z,68.37
2023-05-08T05:24:01.778Z,68.70
2023-05-08T05:25:02.236Z,68.71
2023-05-08T05:26:01.853Z,68.66
2023-05-08T05:27:01.997Z,67.74
2023-05-08T05:28:01.965Z,68.40
2023-05-08T05:29:02.027Z,68.55
2023-05-08T05:30:02.109Z,68.56
2023-05-08T05:31:02.860Z,68.71
2023-05-08T05:32:02.308Z,68.94
2023-05-08T05:33:02.796Z,69.05
2023-05-08T05:34:02.287Z,69.25
2023-05-08T05:35:02.241Z,69.44
2023-05-08T05:36:02.270Z,68.91
2023-05-08T05:37:02.321Z,68.51
2023-05-08T05:38:02.752Z,69.14
2023-05-08T05:39:02.459Z,69.18
2023-05-08T05:40:02.397Z,68.89
2023-05-08T05:41:02.404Z,68.66
2023-05-08T05:42:02.445Z,68.72
2023-05-08T05:43:02.565Z,68.95
2023-05-08T05:44:02.526Z,69.07
2023-05-08T05:45:02.548Z,68.98
2023-05-08T05:46:02.597Z,69.21
2023-05-08T05:47:02.648Z,68.67
2023-05-08T05:48:02.637Z,68.50
2023-05-08T05:49:02.671Z,68.88
2023-05-08T05:50:04.387Z,69.01
2023-05-08T05:51:02.764Z,69.08
2023-05-08T05:52:02.792Z,68.55
2023-05-08T05:53:02.853Z,68.67
2023-05-08T05:54:02.901Z,69.04
2023-05-08T05:55:03.291Z,69.15
2023-05-08T05:56:02.860Z,68.90
2023-05-08T05:57:02.998Z,68.16
2023-05-08T05:58:02.950Z,68.72
2023-05-08T05:59:02.973Z,68.64
2023-05-08T06:00:03.231Z,69.24
2023-05-08T06:01:03.048Z,69.55
2023-05-08T06:02:03.134Z,69.60
2023-05-08T06:03:03.936Z,69.65
2023-05-08T06:04:03.382Z,69.90
2023-05-08T06:05:03.253Z,69.76
2023-05-08T06:06:05.369Z,70.00
2023-05-08T06:07:03.281Z,70.15
2023-05-08T06:08:03.349Z,69.73
2023-05-08T06:09:03.413Z,69.96
2023-05-08T06:10:03.449Z,70.63
2023-05-08T06:11:03.522Z,70.31
2023-05-08T06:12:03.483Z,70.51
2023-05-08T06:13:03.588Z,70.76
2023-05-08T06:14:03.540Z,70.33
2023-05-08T06:15:03.560Z,70.22
2023-05-08T06:16:03.594Z,69.96
2023-05-08T06:17:03.732Z,70.21
2023-05-08T06:18:03.885Z,70.18
2023-05-08T06:19:03.768Z,69.77
2023-05-08T06:20:03.778Z,69.90
2023-05-08T06:21:03.849Z,69.59
2023-05-08T06:22:03.873Z,69.83
2023-05-08T06:23:03.906Z,70.04
2023-05-08T06:24:03.905Z,69.74
2023-05-08T06:25:03.924Z,69.94
2023-05-08T06:26:03.927Z,69.49
2023-05-08T06:27:04.021Z,69.35
2023-05-08T06:28:03.989Z,69.71
2023-05-08T06:29:04.001Z,69.89
2023-05-08T06:30:04.056Z,70.04
2023-05-08T06:31:04.110Z,69.81
2023-05-08T06:32:04.124Z,69.55
2023-05-08T06:33:04.169Z,69.47
2023-05-08T06:34:04.442Z,69.06
2023-05-08T06:35:04.233Z,69.34
2023-05-08T06:36:04.188Z,69.33
2023-05-08T06:37:04.200Z,69.14
2023-05-08T06:38:04.788Z,68.90
2023-05-08T06:39:04.248Z,69.34
2023-05-08T06:40:12.029Z,69.37
2023-05-08T06:41:05.246Z,69.88
2023-05-08T06:42:04.279Z,70.16
2023-05-08T06:43:04.242Z,70.66
2023-05-08T06:44:05.287Z,69.90
2023-05-08T06:45:04.255Z,70.10
2023-05-08T06:46:04.295Z,69.92
2023-05-08T06:47:04.215Z,70.05
2023-05-08T06:48:04.275Z,69.90
2023-05-08T06:49:04.212Z,69.92
2023-05-08T06:50:04.249Z,70.20
2023-05-08T06:51:04.184Z,69.90
2023-05-08T06:52:04.253Z,70.26
2023-05-08T06:53:04.302Z,70.44
2023-05-08T06:54:04.359Z,70.73
2023-05-08T06:55:04.274Z,71.29
2023-05-08T06:56:04.200Z,71.17
2023-05-08T06:57:04.158Z,70.24
2023-05-08T06:58:04.176Z,71.18
2023-05-08T06:59:08.606Z,70.29
2023-05-08T07:00:05.205Z,70.01
2023-05-08T07:01:04.247Z,70.33
2023-05-08T07:02:04.200Z,70.32
2023-05-08T07:03:04.308Z,69.77
2023-05-08T07:04:04.158Z,69.86
2023-05-08T07:05:04.294Z,69.41
2023-05-08T07:06:04.193Z,68.96
2023-05-08T07:07:04.139Z,68.88
2023-05-08T07:08:04.131Z,69.26
2023-05-08T07:09:04.121Z,69.54
2023-05-08T07:10:05.911Z,69.52
2023-05-08T07:11:04.106Z,70.35
2023-05-08T07:12:04.080Z,69.14
2023-05-08T07:13:04.128Z,69.23
2023-05-08T07:14:04.070Z,68.88
2023-05-08T07:15:13.807Z,69.03
2023-05-08T07:16:05.088Z,69.33
2023-05-08T07:17:04.061Z,69.64
2023-05-08T07:18:04.101Z,69.47
2023-05-08T07:19:04.034Z,69.44
2023-05-08T07:20:04.039Z,68.90
2023-05-08T07:21:03.988Z,69.60
2023-05-08T07:22:04.103Z,69.81
2023-05-08T07:23:04.022Z,69.36
2023-05-08T07:24:03.989Z,68.64
2023-05-08T07:25:03.977Z,68.85
2023-05-08T07:26:03.974Z,69.19
2023-05-08T07:27:04.005Z,69.16
2023-05-08T07:28:03.976Z,68.76
2023-05-08T07:29:03.996Z,69.39
2023-05-08T07:30:04.054Z,69.20
2023-05-08T07:31:04.056Z,69.27
2023-05-08T07:32:04.238Z,69.69
2023-05-08T07:33:04.195Z,69.56
2023-05-08T07:34:04.302Z,69.02
2023-05-08T07:35:04.249Z,69.40
2023-05-08T07:36:04.216Z,69.67
2023-05-08T07:37:04.257Z,69.54
2023-05-08T07:38:04.766Z,69.11
2023-05-08T07:39:04.311Z,68.78
2023-05-08T07:40:04.340Z,68.48
2023-05-08T07:41:04.531Z,68.55
2023-05-08T07:42:06.309Z,68.55
2023-05-08T07:43:04.755Z,68.35
2023-05-08T07:44:04.427Z,68.51
2023-05-08T07:45:05.256Z,68.61
2023-05-08T07:46:07.269Z,68.63
2023-05-08T07:47:05.282Z,68.82
2023-05-08T07:48:04.523Z,68.00
2023-05-08T07:49:05.235Z,68.19
2023-05-08T07:50:04.527Z,68.39
2023-05-08T07:51:04.530Z,68.41
2023-05-08T07:52:04.702Z,68.55
2023-05-08T07:53:04.465Z,67.77
2023-05-08T07:54:07.273Z,68.13
2023-05-08T07:55:04.830Z,67.78
2023-05-08T07:56:04.430Z,67.87
2023-05-08T07:57:04.400Z,67.97
2023-05-08T07:58:04.409Z,68.33
2023-05-08T07:59:04.449Z,68.36
2023-05-08T08:00:04.407Z,68.70
2023-05-08T08:01:04.416Z,68.22
2023-05-08T08:02:04.449Z,69.42
2023-05-08T08:03:04.458Z,68.57
2023-05-08T08:04:04.400Z,68.57
2023-05-08T08:05:04.477Z,68.83
2023-05-08T08:06:04.366Z,68.60
2023-05-08T08:07:04.320Z,68.38
2023-05-08T08:08:04.351Z,68.28
2023-05-08T08:09:04.328Z,68.05
2023-05-08T08:10:04.489Z,68.52
2023-05-08T08:11:04.296Z,68.18
2023-05-08T08:12:04.333Z,67.12
2023-05-08T08:13:04.358Z,67.44
2023-05-08T08:14:04.322Z,67.79
2023-05-08T08:15:04.309Z,67.34
2023-05-08T08:16:04.293Z,67.25
2023-05-08T08:17:04.329Z,67.54
2023-05-08T08:18:04.277Z,67.49
2023-05-08T08:19:04.821Z,67.09
2023-05-08T08:20:04.263Z,66.33
2023-05-08T08:21:04.300Z,66.19
2023-05-08T08:22:04.315Z,66.19
2023-05-08T08:23:04.212Z,66.12
2023-05-08T08:24:04.260Z,66.29
2023-05-08T08:25:04.289Z,67.47
2023-05-08T08:26:04.191Z,66.89
2023-05-08T08:27:04.192Z,66.47
2023-05-08T08:28:04.252Z,67.20
2023-05-08T08:29:04.265Z,67.78
2023-05-08T08:30:15.611Z,66.54
2023-05-08T08:31:05.205Z,65.97
2023-05-08T08:32:04.271Z,65.55
2023-05-08T08:33:04.323Z,65.73
2023-05-08T08:34:04.186Z,65.98
2023-05-08T08:35:04.137Z,66.16
2023-05-08T08:36:04.112Z,65.44
2023-05-08T08:37:04.205Z,65.29
2023-05-08T08:38:04.144Z,64.96
2023-05-08T08:39:04.129Z,65.61
2023-05-08T08:40:04.119Z,64.57
2023-05-08T08:41:04.192Z,64.02
2023-05-08T08:42:04.274Z,63.77
2023-05-08T08:43:04.770Z,64.27
2023-05-08T08:44:04.278Z,65.27
2023-05-08T08:45:04.384Z,64.84
2023-05-08T08:46:04.399Z,65.18
2023-05-08T08:47:04.414Z,64.74
2023-05-08T08:48:04.560Z,63.82
2023-05-08T08:49:04.609Z,64.26
2023-05-08T08:50:04.740Z,63.96
2023-05-08T08:51:04.535Z,63.60
2023-05-08T08:52:04.552Z,64.50
2023-05-08T08:53:04.682Z,64.33
2023-05-08T08:54:04.662Z,63.73
2023-05-08T08:55:04.616Z,64.11
2023-05-08T08:56:04.633Z,63.67
2023-05-08T08:57:04.786Z,63.55
2023-05-08T08:58:04.768Z,62.92
2023-05-08T08:59:04.706Z,63.55
2023-05-08T09:00:04.761Z,62.21
2023-05-08T09:01:04.770Z,62.21
2023-05-08T09:02:04.808Z,61.96
2023-05-08T09:03:04.940Z,61.69
2023-05-08T09:04:04.896Z,61.68
2023-05-08T09:05:04.886Z,61.67
2023-05-08T09:06:04.864Z,61.13
2023-05-08T09:07:04.882Z,60.56
2023-05-08T09:08:04.904Z,60.36
2023-05-08T09:09:04.985Z,60.70
2023-05-08T09:10:04.897Z,60.89
2023-05-08T09:11:05.309Z,60.56
2023-05-08T09:12:05.814Z,60.72
2023-05-08T09:13:05.025Z,61.47
2023-05-08T09:14:04.951Z,61.59
2023-05-08T09:15:05.065Z,61.30
2023-05-08T09:16:05.000Z,61.17
2023-05-08T09:17:04.966Z,60.90
2023-05-08T09:18:05.127Z,60.85
2023-05-08T09:19:05.105Z,60.51
2023-05-08T09:20:05.096Z,60.10
2023-05-08T09:21:05.136Z,60.42
2023-05-08T09:22:05.286Z,60.55
2023-05-08T09:23:05.265Z,60.65
2023-05-08T09:24:05.324Z,60.17
2023-05-08T09:25:05.415Z,60.38
2023-05-08T09:26:05.400Z,60.62
2023-05-08T09:27:05.451Z,59.93
2023-05-08T09:28:05.526Z,59.54
2023-05-08T09:29:05.529Z,59.59
2023-05-08T09:30:05.597Z,59.84
2023-05-08T09:31:05.631Z,60.00
2023-05-08T09:32:05.771Z,59.54
2023-05-08T09:33:05.972Z,59.51
2023-05-08T09:34:05.784Z,59.58
2023-05-08T09:35:05.882Z,59.74
2023-05-08T09:36:06.265Z,59.62
2023-05-08T09:37:06.048Z,60.16
2023-05-08T09:38:05.953Z,59.28
2023-05-08T09:39:06.058Z,57.94
2023-05-08T09:40:06.864Z,57.21
2023-05-08T09:41:06.208Z,57.97
2023-05-08T09:42:06.140Z,58.11
2023-05-08T09:43:06.398Z,58.94
2023-05-08T09:44:06.803Z,58.33
2023-05-08T09:45:06.197Z,58.18
2023-05-08T09:46:06.220Z,57.85
2023-05-08T09:47:06.206Z,57.03
2023-05-08T09:48:06.258Z,56.86
2023-05-08T09:49:06.248Z,56.38
2023-05-08T09:50:06.339Z,56.40
2023-05-08T09:51:06.415Z,55.87
2023-05-08T09:52:08.512Z,55.41
2023-05-08T09:53:06.794Z,54.88
2023-05-08T09:54:08.324Z,55.02
2023-05-08T09:55:06.756Z,55.57
2023-05-08T09:56:09.397Z,55.82
2023-05-08T09:57:06.632Z,55.36
2023-05-08T09:58:06.796Z,55.07
2023-05-08T09:59:06.663Z,54.86
2023-05-08T10:00:06.654Z,55.42
2023-05-08T10:01:06.661Z,55.09
2023-05-08T10:02:07.314Z,54.41
2023-05-08T10:03:06.660Z,54.55
2023-05-08T10:04:06.772Z,54.31
2023-05-08T10:05:06.647Z,54.73
2023-05-08T10:06:06.575Z,54.63
2023-05-08T10:07:06.556Z,53.96
2023-05-08T10:08:06.535Z,54.14
2023-05-08T10:09:06.550Z,54.65
2023-05-08T10:10:06.721Z,54.32
2023-05-08T10:11:06.581Z,54.21
2023-05-08T10:12:06.595Z,54.33
2023-05-08T10:13:06.750Z,54.45
2023-05-08T10:14:06.508Z,53.93
2023-05-08T10:15:06.504Z,53.90
2023-05-08T10:16:06.535Z,52.98
2023-05-08T10:17:06.560Z,53.40
2023-05-08T10:18:06.604Z,53.87
2023-05-08T10:19:06.459Z,54.84
2023-05-08T10:20:06.496Z,54.90
2023-05-08T10:21:06.470Z,54.93
2023-05-08T10:22:06.471Z,55.34
2023-05-08T10:23:06.436Z,55.04
2023-05-08T10:24:06.594Z,56.40
2023-05-08T10:25:06.448Z,56.29
2023-05-08T10:26:06.440Z,55.90
2023-05-08T10:27:07.888Z,55.42
2023-05-08T10:28:06.552Z,54.66
2023-05-08T10:29:06.405Z,53.88
2023-05-08T10:30:06.408Z,53.69
2023-05-08T10:31:07.357Z,53.43
2023-05-08T10:32:06.400Z,53.33
2023-05-08T10:33:06.570Z,52.89
2023-05-08T10:34:06.472Z,52.17
2023-05-08T10:35:06.454Z,51.97
2023-05-08T10:36:06.376Z,52.07
2023-05-08T10:37:06.367Z,52.12
2023-05-08T10:38:06.403Z,51.41
2023-05-08T10:39:06.359Z,52.33
2023-05-08T10:40:06.447Z,52.88
2023-05-08T10:41:06.388Z,53.01
2023-05-08T10:42:06.420Z,53.18
2023-05-08T10:43:06.419Z,52.91
2023-05-08T10:44:06.386Z,52.73
2023-05-08T10:45:06.339Z,51.12
2023-05-08T10:46:06.455Z,50.51
2023-05-08T10:47:06.428Z,50.17
2023-05-08T10:48:06.415Z,49.98
2023-05-08T10:49:06.314Z,48.74
2023-05-08T10:50:06.322Z,49.51
2023-05-08T10:51:06.346Z,48.72
2023-05-08T10:52:06.313Z,49.23
2023-05-08T10:53:06.452Z,49.88
2023-05-08T10:54:06.525Z,50.70
2023-05-08T10:55:06.480Z,50.82
2023-05-08T10:56:06.490Z,49.47
2023-05-08T10:57:06.509Z,49.20
2023-05-08T10:58:06.953Z,49.21
2023-05-08T10:59:06.654Z,48.64
2023-05-08T11:00:06.722Z,48.46
2023-05-08T11:01:07.713Z,46.35
2023-05-08T11:02:06.825Z,47.15
2023-05-08T11:03:14.158Z,46.47
2023-05-08T11:04:08.419Z,46.93
2023-05-08T11:05:06.767Z,48.52
2023-05-08T11:06:06.731Z,47.47
2023-05-08T11:07:06.799Z,47.89
2023-05-08T11:08:06.758Z,47.35
2023-05-08T11:09:06.781Z,47.54
2023-05-08T11:10:07.324Z,48.00
2023-05-08T11:11:07.317Z,48.60
2023-05-08T11:12:06.772Z,49.34
2023-05-08T11:13:07.437Z,49.67
2023-05-08T11:14:06.799Z,49.32
2023-05-08T11:15:06.908Z,46.95
2023-05-08T11:16:06.879Z,45.67
2023-05-08T11:17:06.933Z,46.34
2023-05-08T11:18:07.025Z,45.88
2023-05-08T11:19:06.955Z,46.01
2023-05-08T11:20:07.320Z,45.92
2023-05-08T11:21:07.318Z,45.98
2023-05-08T11:22:07.937Z,46.29
2023-05-08T11:23:07.032Z,45.52
2023-05-08T11:24:08.006Z,44.97
2023-05-08T11:25:07.897Z,45.04
2023-05-08T11:26:07.221Z,45.55
2023-05-08T11:27:07.180Z,44.82
2023-05-08T11:28:07.281Z,45.44
2023-05-08T11:29:07.224Z,45.54
2023-05-08T11:30:07.278Z,46.28
2023-05-08T11:31:07.352Z,46.21
2023-05-08T11:32:07.374Z,46.37
2023-05-08T11:33:07.417Z,45.92
2023-05-08T11:34:07.393Z,44.71
2023-05-08T11:35:07.425Z,44.79
2023-05-08T11:36:07.467Z,44.71
2023-05-08T11:37:07.467Z,44.91
2023-05-08T11:38:07.484Z,44.83
2023-05-08T11:39:07.493Z,44.99
2023-05-08T11:40:07.560Z,43.99
2023-05-08T11:41:07.571Z,44.10
2023-05-08T11:42:07.628Z,44.72
2023-05-08T11:43:08.437Z,45.23
2023-05-08T11:44:07.673Z,45.40
2023-05-08T11:45:07.748Z,44.24
2023-05-08T11:46:07.747Z,43.82
2023-05-08T11:47:07.932Z,44.08
2023-05-08T11:48:07.857Z,44.32
2023-05-08T11:49:07.831Z,43.79
2023-05-08T11:50:07.921Z,44.32
2023-05-08T11:51:07.892Z,45.00
2023-05-08T11:52:07.939Z,44.57
2023-05-08T11:53:08.058Z,44.11
2023-05-08T11:54:08.044Z,43.86
2023-05-08T11:55:08.015Z,42.94
2023-05-08T11:56:08.062Z,43.05
2023-05-08T11:57:08.087Z,43.63
2023-05-08T11:58:08.100Z,43.19
2023-05-08T11:59:08.202Z,42.82
2023-05-08T12:00:08.166Z,42.78
2023-05-08T12:01:08.306Z,43.35
2023-05-08T12:02:09.515Z,44.30
2023-05-08T12:03:08.381Z,45.31
2023-05-08T12:04:08.597Z,45.65
2023-05-08T12:05:08.460Z,45.37
2023-05-08T12:06:08.350Z,45.47
2023-05-08T12:07:08.452Z,44.38
2023-05-08T12:08:08.444Z,43.83
2023-05-08T12:09:08.493Z,43.57
2023-05-08T12:10:08.526Z,43.39
2023-05-08T12:11:08.567Z,42.70
2023-05-08T12:12:08.593Z,42.71
2023-05-08T12:13:08.667Z,42.93
2023-05-08T12:14:08.769Z,42.36
2023-05-08T12:15:08.668Z,41.99
2023-05-08T12:16:08.661Z,41.75
2023-05-08T12:17:08.798Z,41.56
2023-05-08T12:18:08.784Z,41.29
2023-05-08T12:19:08.768Z,41.23
2023-05-08T12:20:08.844Z,41.18
2023-05-08T12:21:08.856Z,42.08
2023-05-08T12:22:08.902Z,41.45
2023-05-08T12:23:08.894Z,41.19
2023-05-08T12:24:08.916Z,41.53
2023-05-08T12:25:09.926Z,40.54
2023-05-08T12:26:09.922Z,40.63
2023-05-08T12:27:09.107Z,40.44
2023-05-08T12:28:08.995Z,40.87
2023-05-08T12:29:09.038Z,40.22
2023-05-08T12:30:09.063Z,40.60
2023-05-08T12:31:09.200Z,40.57
2023-05-08T12:32:09.109Z,40.34
2023-05-08T12:33:09.231Z,40.24
2023-05-08T12:34:09.184Z,40.21
2023-05-08T12:35:09.194Z,39.70
2023-05-08T12:36:09.196Z,39.93
2023-05-08T12:37:09.231Z,40.12
2023-05-08T12:38:09.285Z,39.68
2023-05-08T12:39:09.301Z,39.66
2023-05-08T12:40:09.324Z,38.14
2023-05-08T12:41:09.382Z,38.44
2023-05-08T12:42:09.408Z,38.82
2023-05-08T12:43:09.459Z,39.06
2023-05-08T12:44:09.493Z,39.02
2023-05-08T12:45:09.611Z,38.81
2023-05-08T12:46:09.597Z,37.38
2023-05-08T12:47:09.610Z,37.36
2023-05-08T12:48:09.680Z,36.98
2023-05-08T12:49:09.632Z,37.13
2023-05-08T12:50:09.821Z,36.88
2023-05-08T12:51:09.808Z,36.79
2023-05-08T12:52:09.899Z,36.27
2023-05-08T12:53:09.879Z,35.36